Time;durP1;ratioP1;P1;durP2;ratioP2;P2;SDS_P1;SDS_P2;PMS_P1;PMS_P2;Temp;Humidity;BMP_temperature;BMP_pressure;BME280_temperature;BME280_humidity;BME280_pressure;Samples;Min_cycle;Max_cycle;Signal;HPM_P1;HPM_P2
2022/11/19 00:00:49;;;;;;;4.45;3.33;;;;;;;;;;5054646;28;20041;-79
2022/11/19 00:03:19;;;;;;;5.53;4.10;;;;;;;;;;5042788;28;20045;-79
2022/11/19 00:05:46;;;;;;;5.13;3.97;;;;;;;;;;5039916;28;20564;-79
2022/11/19 00:08:14;;;;;;;5.03;3.55;;;;;;;;;;5054438;28;20045;-79
2022/11/19 00:10:41;;;;;;;4.65;3.53;;;;;;;;;;5039482;28;20045;-78
2022/11/19 00:13:07;;;;;;;5.78;3.75;;;;;;;;;;5042087;28;20075;-79
2022/11/19 00:15:34;;;;;;;5.00;3.63;;;;;;;;;;5037164;28;20107;-77
2022/11/19 00:18:01;;;;;;;4.88;3.55;;;;;;;;;;5054318;28;20067;-78
2022/11/19 00:20:28;;;;;;;6.18;3.72;;;;;;;;;;5054476;28;20095;-79
2022/11/19 00:22:56;;;;;;;9.73;4.00;;;;;;;;;;5054506;28;20438;-79
2022/11/19 00:25:22;;;;;;;5.50;4.28;;;;;;;;;;5054019;28;20102;-79
2022/11/19 00:27:48;;;;;;;5.50;4.05;;;;;;;;;;5052718;28;20055;-79
2022/11/19 00:30:14;;;;;;;5.82;4.03;;;;;;;;;;5054154;28;20045;-78
2022/11/19 00:32:40;;;;;;;5.53;3.65;;;;;;;;;;5053898;28;20059;-79
2022/11/19 00:35:06;;;;;;;5.45;3.92;;;;;;;;;;5052902;28;20513;-79
2022/11/19 00:37:32;;;;;;;5.43;4.05;;;;;;;;;;5052283;28;20411;-77
2022/11/19 00:39:58;;;;;;;5.75;4.00;;;;;;;;;;5054102;28;20049;-79
2022/11/19 00:42:25;;;;;;;5.47;4.07;;;;;;;;;;5034878;28;20056;-79
2022/11/19 00:44:51;;;;;;;4.65;3.70;;;;;;;;;;5044024;28;20055;-79
2022/11/19 00:47:17;;;;;;;5.18;3.60;;;;;;;;;;5040145;28;20119;-79
2022/11/19 00:49:43;;;;;;;4.40;3.70;;;;;;;;;;5053830;28;20080;-79
2022/11/19 00:52:09;;;;;;;6.05;4.07;;;;;;;;;;5053493;28;20048;-79
2022/11/19 00:54:35;;;;;;;5.97;3.95;;;;;;;;;;5053581;28;20033;-79
2022/11/19 00:57:01;;;;;;;5.90;4.03;;;;;;;;;;5053786;28;20376;-79
2022/11/19 00:59:28;;;;;;;5.32;4.20;;;;;;;;;;5048676;28;20427;-78
2022/11/19 01:01:54;;;;;;;6.22;4.38;;;;;;;;;;5033821;28;20128;-79
2022/11/19 01:04:20;;;;;;;5.03;3.85;;;;;;;;;;5033769;28;20041;-79
2022/11/19 01:06:46;;;;;;;5.68;4.18;;;;;;;;;;5041498;28;20048;-78
2022/11/19 01:09:12;;;;;;;6.75;4.57;;;;;;;;;;5052416;28;20107;-78
2022/11/19 01:11:39;;;;;;;5.95;3.90;;;;;;;;;;5049786;28;20488;-79
2022/11/19 01:14:05;;;;;;;5.68;3.90;;;;;;;;;;5040923;28;20053;-79
2022/11/19 01:16:36;;;;;;;6.45;4.40;;;;;;;;;;5052187;28;20045;-79
2022/11/19 01:19:03;;;;;;;6.35;4.10;;;;;;;;;;5053379;28;20041;-77
2022/11/19 01:21:30;;;;;;;5.95;4.40;;;;;;;;;;5068871;28;20524;-78
2022/11/19 01:23:56;;;;;;;6.95;4.80;;;;;;;;;;5042094;28;20068;-79
2022/11/19 01:26:22;;;;;;;5.75;4.20;;;;;;;;;;5048769;28;20046;-79
2022/11/19 01:28:48;;;;;;;6.75;4.43;;;;;;;;;;5042910;28;20598;-79
2022/11/19 01:31:16;;;;;;;5.65;3.97;;;;;;;;;;5053459;28;20048;-79
2022/11/19 01:33:42;;;;;;;6.53;4.50;;;;;;;;;;5051760;28;20049;-79
2022/11/19 01:36:13;;;;;;;5.82;4.22;;;;;;;;;;5052998;28;20045;-78
2022/11/19 01:38:39;;;;;;;5.60;4.05;;;;;;;;;;5051543;28;20044;-78
2022/11/19 01:41:05;;;;;;;6.63;4.40;;;;;;;;;;5052190;28;20056;-78
2022/11/19 01:43:43;;;;;;;7.18;4.35;;;;;;;;;;5052859;28;20049;-79
2022/11/19 01:46:10;;;;;;;5.80;3.97;;;;;;;;;;5049558;28;20126;-78
2022/11/19 01:48:39;;;;;;;6.07;4.60;;;;;;;;;;5038498;28;20048;-79
2022/11/19 01:51:09;;;;;;;5.75;4.38;;;;;;;;;;5057065;28;20041;-78
2022/11/19 01:53:35;;;;;;;6.38;4.43;;;;;;;;;;5057336;28;20064;-79
2022/11/19 01:56:04;;;;;;;6.25;4.47;;;;;;;;;;5057997;28;20049;-79
2022/11/19 01:58:38;;;;;;;5.95;4.50;;;;;;;;;;5060782;28;20041;-79
2022/11/19 02:01:04;;;;;;;6.55;4.63;;;;;;;;;;5058695;28;20088;-78
2022/11/19 02:03:32;;;;;;;7.13;4.47;;;;;;;;;;5055714;28;20049;-79
2022/11/19 02:05:58;;;;;;;5.90;4.68;;;;;;;;;;5056976;28;20503;-79
2022/11/19 02:08:41;;;;;;;5.43;3.78;;;;;;;;;;5057202;28;20052;-79
2022/11/19 02:11:13;;;;;;;7.53;4.82;;;;;;;;;;5056728;28;20058;-78
2022/11/19 02:13:48;;;;;;;6.53;4.32;;;;;;;;;;5047675;28;20135;-79
2022/11/19 02:16:37;;;;;;;6.22;4.43;;;;;;;;;;5054947;28;20498;-79
2022/11/19 02:19:23;;;;;;;7.60;4.97;;;;;;;;;;5056571;28;20084;-78
2022/11/19 02:22:00;;;;;;;5.28;4.03;;;;;;;;;;5056512;28;20048;-79
2022/11/19 02:24:25;;;;;;;;;;;;;;;;;;5056869;28;20399;-79
2022/11/19 02:27:30;;;;;;;5.80;4.50;;;;;;;;;;5055200;28;19921;-79
2022/11/19 02:30:02;;;;;;;6.68;4.50;;;;;;;;;;5024559;28;20073;-78
2022/11/19 02:32:34;;;;;;;8.05;4.70;;;;;;;;;;5016753;28;20519;-79
2022/11/19 02:35:16;;;;;;;6.85;4.82;;;;;;;;;;4992350;28;20240;-78
2022/11/19 02:37:54;;;;;;;5.65;4.18;;;;;;;;;;5034304;28;20037;-78
2022/11/19 02:40:23;;;;;;;6.53;4.50;;;;;;;;;;5043821;28;20080;-78
2022/11/19 02:43:12;;;;;;;6.25;4.53;;;;;;;;;;5040027;28;20037;-78
2022/11/19 02:45:58;;;;;;;5.97;4.47;;;;;;;;;;5000111;28;20053;-79
2022/11/19 02:48:24;;;;;;;5.53;4.43;;;;;;;;;;5034574;28;20053;-78
2022/11/19 02:50:54;;;;;;;8.35;4.85;;;;;;;;;;5045341;28;20574;-78
2022/11/19 02:53:22;;;;;;;12.10;5.40;;;;;;;;;;5037911;28;20100;-79
2022/11/19 03:06:49;;;;;;;6.38;4.43;;;;;;;;;;5036411;28;20626;-78
2022/11/19 03:09:16;;;;;;;6.00;4.18;;;;;;;;;;5036018;28;20041;-78
2022/11/19 03:11:44;;;;;;;6.47;4.45;;;;;;;;;;5044918;28;20179;-79
2022/11/19 03:17:20;;;;;;;6.18;4.40;;;;;;;;;;5044771;28;20088;-79
2022/11/19 03:19:52;;;;;;;6.88;4.38;;;;;;;;;;5050117;28;20056;-78
2022/11/19 03:22:20;;;;;;;5.88;4.60;;;;;;;;;;5055430;28;20048;-79
2022/11/19 03:24:59;;;;;;;6.15;4.03;;;;;;;;;;5055983;28;20482;-79
2022/11/19 03:27:28;;;;;;;6.78;4.72;;;;;;;;;;5054156;28;20076;-79
2022/11/19 03:29:58;;;;;;;6.28;4.43;;;;;;;;;;5048581;28;20132;-79
2022/11/19 03:32:29;;;;;;;7.63;4.40;;;;;;;;;;5039335;28;20041;-78
2022/11/19 03:34:58;;;;;;;6.82;4.93;;;;;;;;;;5037465;28;20398;-79
2022/11/19 03:37:24;;;;;;;5.88;4.05;;;;;;;;;;5055300;28;20077;-79
2022/11/19 03:39:51;;;;;;;5.80;4.32;;;;;;;;;;5038914;28;20049;-79
2022/11/19 03:42:18;;;;;;;6.30;4.50;;;;;;;;;;5033959;28;20049;-78
2022/11/19 03:44:49;;;;;;;6.00;4.07;;;;;;;;;;5045637;28;20041;-79
2022/11/19 03:47:17;;;;;;;7.07;4.45;;;;;;;;;;5053561;28;20084;-79
2022/11/19 03:49:45;;;;;;;5.10;4.25;;;;;;;;;;5054830;28;20060;-79
2022/11/19 03:52:13;;;;;;;4.97;3.83;;;;;;;;;;5054851;28;20077;-79
2022/11/19 03:54:40;;;;;;;6.28;4.55;;;;;;;;;;5054576;28;20448;-79
2022/11/19 03:57:07;;;;;;;6.00;4.03;;;;;;;;;;5036834;28;20506;-78
2022/11/19 03:59:33;;;;;;;5.97;4.05;;;;;;;;;;5041304;28;20617;-79
2022/11/19 04:02:02;;;;;;;6.43;4.57;;;;;;;;;;5049804;28;20048;-79
2022/11/19 04:04:37;;;;;;;6.63;4.45;;;;;;;;;;5052386;28;20041;-79
2022/11/19 04:07:11;;;;;;;5.82;4.22;;;;;;;;;;5034806;28;20052;-79
2022/11/19 04:09:38;;;;;;;6.18;4.60;;;;;;;;;;5034735;28;20053;-77
2022/11/19 04:12:04;;;;;;;6.20;4.38;;;;;;;;;;5041901;28;20056;-78
2022/11/19 04:14:30;;;;;;;7.68;5.22;;;;;;;;;;5053590;28;20045;-79
2022/11/19 04:16:57;;;;;;;8.30;4.47;;;;;;;;;;5022794;28;20475;-79
2022/11/19 04:19:23;;;;;;;6.05;4.57;;;;;;;;;;5054375;28;20085;-78
2022/11/19 04:21:51;;;;;;;6.20;4.63;;;;;;;;;;5054421;28;20045;-79
2022/11/19 04:24:17;;;;;;;7.45;4.80;;;;;;;;;;5054231;28;20059;-79
2022/11/19 04:26:43;;;;;;;6.35;5.20;;;;;;;;;;5054310;28;20053;-79
2022/11/19 04:29:09;;;;;;;5.90;4.20;;;;;;;;;;5053577;28;20044;-79
2022/11/19 04:31:36;;;;;;;6.65;4.40;;;;;;;;;;5054335;28;20045;-78
2022/11/19 04:34:02;;;;;;;7.43;4.60;;;;;;;;;;5053809;28;20091;-79
2022/11/19 04:36:28;;;;;;;5.38;4.22;;;;;;;;;;5048276;28;20148;-79
2022/11/19 04:38:54;;;;;;;7.15;4.78;;;;;;;;;;5034211;28;20060;-77
2022/11/19 04:41:20;;;;;;;8.68;4.50;;;;;;;;;;5034212;28;20049;-79
2022/11/19 04:43:46;;;;;;;6.10;4.55;;;;;;;;;;5038027;28;20041;-79
2022/11/19 04:46:12;;;;;;;8.18;4.60;;;;;;;;;;5053847;28;20483;-79
2022/11/19 04:48:38;;;;;;;6.22;4.45;;;;;;;;;;5052726;28;20041;-78
2022/11/19 04:51:04;;;;;;;6.88;4.72;;;;;;;;;;5052489;28;20049;-79
2022/11/19 04:53:30;;;;;;;6.47;4.68;;;;;;;;;;5044110;28;20076;-78
2022/11/19 04:55:56;;;;;;;8.27;5.00;;;;;;;;;;5053501;28;20048;-77
2022/11/19 04:58:22;;;;;;;6.70;4.57;;;;;;;;;;5053432;28;20045;-78
2022/11/19 05:00:49;;;;;;;6.82;4.90;;;;;;;;;;5048858;28;20041;-79
2022/11/19 05:03:15;;;;;;;7.25;4.30;;;;;;;;;;5033966;28;20476;-79
2022/11/19 05:05:41;;;;;;;6.75;4.55;;;;;;;;;;5058452;28;20509;-79
2022/11/19 05:08:09;;;;;;;7.05;4.35;;;;;;;;;;5057030;28;20044;-79
2022/11/19 05:10:35;;;;;;;7.28;4.60;;;;;;;;;;5059626;28;20056;-79
2022/11/19 05:13:01;;;;;;;6.18;4.55;;;;;;;;;;5052407;28;20040;-78
2022/11/19 05:15:28;;;;;;;5.68;4.20;;;;;;;;;;5053549;28;20115;-79
2022/11/19 05:17:54;;;;;;;6.80;4.88;;;;;;;;;;5053398;28;20499;-79
2022/11/19 05:20:20;;;;;;;6.80;4.63;;;;;;;;;;5033239;28;20048;-78
2022/11/19 05:22:46;;;;;;;6.55;4.47;;;;;;;;;;5035035;28;20049;-79
2022/11/19 05:25:12;;;;;;;8.02;5.18;;;;;;;;;;5033679;28;20103;-79
2022/11/19 05:27:38;;;;;;;6.07;4.05;;;;;;;;;;5045769;28;20048;-79
2022/11/19 05:30:04;;;;;;;7.75;5.30;;;;;;;;;;5053230;28;20047;-79
2022/11/19 05:32:30;;;;;;;6.95;4.47;;;;;;;;;;5041938;28;20053;-79
2022/11/19 05:34:56;;;;;;;7.85;5.03;;;;;;;;;;5045207;28;20049;-79
2022/11/19 05:37:22;;;;;;;8.35;5.38;;;;;;;;;;5053012;28;20045;-79
2022/11/19 05:39:48;;;;;;;8.07;5.70;;;;;;;;;;5051018;28;20499;-79
2022/11/19 05:42:14;;;;;;;7.13;5.05;;;;;;;;;;5040657;28;20055;-79
2022/11/19 05:44:40;;;;;;;8.25;5.10;;;;;;;;;;5051726;28;20055;-79
2022/11/19 05:47:06;;;;;;;8.82;5.20;;;;;;;;;;5038221;28;20049;-79
2022/11/19 05:49:32;;;;;;;6.60;4.68;;;;;;;;;;5050889;28;20127;-79
2022/11/19 05:51:58;;;;;;;7.70;4.80;;;;;;;;;;5051761;28;20056;-79
2022/11/19 05:54:24;;;;;;;7.15;4.82;;;;;;;;;;5050678;28;20049;-79
2022/11/19 05:56:50;;;;;;;6.55;4.40;;;;;;;;;;5033209;28;20119;-78
2022/11/19 05:59:16;;;;;;;9.07;5.70;;;;;;;;;;5032936;28;20407;-79
2022/11/19 06:01:42;;;;;;;11.85;5.75;;;;;;;;;;5042637;28;20155;-79
2022/11/19 06:04:10;;;;;;;7.78;5.25;;;;;;;;;;5046309;28;20138;-79
2022/11/19 06:06:36;;;;;;;7.10;5.00;;;;;;;;;;5053008;28;20060;-79
2022/11/19 06:09:07;;;;;;;8.77;5.13;;;;;;;;;;5052936;28;20045;-79
2022/11/19 06:11:49;;;;;;;7.15;4.05;;;;;;;;;;5051707;28;20128;-78
2022/11/19 06:14:20;;;;;;;7.97;5.20;;;;;;;;;;5052987;28;20061;-79
2022/11/19 06:16:47;;;;;;;6.50;4.68;;;;;;;;;;5052720;28;20186;-79
2022/11/19 06:19:13;;;;;;;7.38;5.05;;;;;;;;;;5053005;28;20041;-79
2022/11/19 06:21:39;;;;;;;7.95;5.10;;;;;;;;;;5051566;28;20041;-79
2022/11/19 06:24:05;;;;;;;7.53;5.32;;;;;;;;;;5053721;28;20045;-79
2022/11/19 06:26:31;;;;;;;8.20;5.18;;;;;;;;;;5054529;28;20045;-80
2022/11/19 06:28:57;;;;;;;7.45;4.88;;;;;;;;;;5052406;28;20044;-77
2022/11/19 06:31:26;;;;;;;6.97;4.90;;;;;;;;;;5052766;28;20124;-79
2022/11/19 06:33:52;;;;;;;8.23;5.78;;;;;;;;;;5053392;28;20052;-78
2022/11/19 06:36:18;;;;;;;9.82;5.72;;;;;;;;;;5053516;28;20044;-79
2022/11/19 06:38:45;;;;;;;6.93;5.05;;;;;;;;;;5036022;28;20498;-78
2022/11/19 06:41:11;;;;;;;7.18;4.93;;;;;;;;;;5036436;28;20128;-78
2022/11/19 06:43:37;;;;;;;8.38;5.40;;;;;;;;;;5036995;28;20045;-79
2022/11/19 06:46:03;;;;;;;7.15;4.68;;;;;;;;;;5048942;28;20037;-78
2022/11/19 06:48:29;;;;;;;7.25;5.10;;;;;;;;;;5059249;28;20047;-77
2022/11/19 06:50:55;;;;;;;7.82;4.95;;;;;;;;;;5037364;28;20042;-78
2022/11/19 06:53:21;;;;;;;6.78;4.90;;;;;;;;;;5018377;28;20095;-78
2022/11/19 06:55:47;;;;;;;8.32;5.32;;;;;;;;;;5041808;28;20037;-78
2022/11/19 06:58:14;;;;;;;8.90;4.78;;;;;;;;;;5055981;28;20052;-78
2022/11/19 07:00:40;;;;;;;8.52;5.90;;;;;;;;;;5055726;28;20080;-78
2022/11/19 07:03:06;;;;;;;7.97;5.47;;;;;;;;;;5055900;28;20040;-79
2022/11/19 07:05:32;;;;;;;7.63;5.25;;;;;;;;;;5056090;28;20128;-79
2022/11/19 07:07:58;;;;;;;10.10;5.53;;;;;;;;;;5054033;28;20077;-78
2022/11/19 07:10:24;;;;;;;6.72;4.38;;;;;;;;;;5052770;28;20399;-78
2022/11/19 07:12:50;;;;;;;7.95;5.50;;;;;;;;;;5055172;28;20098;-78
2022/11/19 07:15:16;;;;;;;7.53;4.80;;;;;;;;;;5050736;28;20056;-78
2022/11/19 07:17:43;;;;;;;7.28;4.93;;;;;;;;;;5037408;28;20042;-80
2022/11/19 07:20:10;;;;;;;8.93;5.20;;;;;;;;;;5052658;28;20123;-78
2022/11/19 07:22:37;;;;;;;8.63;5.38;;;;;;;;;;5035600;28;20076;-78
2022/11/19 07:25:03;;;;;;;7.72;5.18;;;;;;;;;;5053562;28;20543;-78
2022/11/19 07:27:29;;;;;;;7.35;4.82;;;;;;;;;;5055571;28;20055;-78
2022/11/19 07:29:55;;;;;;;7.00;5.05;;;;;;;;;;5038919;28;20102;-78
2022/11/19 07:32:21;;;;;;;7.38;5.10;;;;;;;;;;5035478;28;20041;-78
2022/11/19 07:34:47;;;;;;;7.22;4.95;;;;;;;;;;5034996;28;20569;-78
2022/11/19 07:37:13;;;;;;;7.80;4.95;;;;;;;;;;5052160;28;20487;-78
2022/11/19 07:39:39;;;;;;;7.85;4.93;;;;;;;;;;5055209;28;20099;-78
2022/11/19 07:44:50;;;;;;;8.50;5.78;;;;;;;;;;5054787;28;20131;-79
2022/11/19 07:47:16;;;;;;;7.43;5.45;;;;;;;;;;5054750;28;20409;-78
2022/11/19 07:49:45;;;;;;;8.23;5.82;;;;;;;;;;5055101;28;20048;-78
2022/11/19 07:52:11;;;;;;;6.40;4.63;;;;;;;;;;5037493;28;20045;-79
2022/11/19 07:54:37;;;;;;;9.25;5.10;;;;;;;;;;5053380;28;20087;-79
2022/11/19 07:57:03;;;;;;;6.95;4.63;;;;;;;;;;5055290;28;20048;-79
2022/11/19 07:59:29;;;;;;;7.05;4.97;;;;;;;;;;5054689;28;20099;-79
2022/11/19 08:01:55;;;;;;;7.10;5.07;;;;;;;;;;5054495;28;20442;-79
2022/11/19 08:04:21;;;;;;;6.50;4.30;;;;;;;;;;5053913;28;20045;-79
2022/11/19 08:06:47;;;;;;;7.43;5.20;;;;;;;;;;5054851;28;20090;-79
2022/11/19 08:09:13;;;;;;;7.25;5.70;;;;;;;;;;5051354;28;20033;-79
2022/11/19 08:11:39;;;;;;;6.85;4.82;;;;;;;;;;5047774;28;20125;-79
2022/11/19 08:14:05;;;;;;;7.45;4.78;;;;;;;;;;5053923;28;20045;-79
2022/11/19 08:19:19;;;;;;;6.78;5.00;;;;;;;;;;5064059;28;20434;-79
2022/11/19 08:21:46;;;;;;;6.53;4.50;;;;;;;;;;5060974;28;20053;-79
2022/11/19 08:24:13;;;;;;;6.68;4.78;;;;;;;;;;5057080;28;20041;-81
2022/11/19 08:26:42;;;;;;;8.18;4.63;;;;;;;;;;5034524;28;20073;-80
2022/11/19 08:29:12;;;;;;;8.07;5.05;;;;;;;;;;5038295;28;20056;-80
2022/11/19 08:31:39;;;;;;;8.23;4.57;;;;;;;;;;5020701;28;20442;-80
2022/11/19 08:34:05;;;;;;;6.13;4.47;;;;;;;;;;5045064;28;20137;-80
2022/11/19 08:36:31;;;;;;;6.07;4.57;;;;;;;;;;5041225;28;20073;-83
2022/11/19 08:38:57;;;;;;;5.68;4.20;;;;;;;;;;5051815;28;20051;-79
2022/11/19 08:44:09;;;;;;;8.48;5.32;;;;;;;;;;5060510;28;20045;-79
2022/11/19 08:46:35;;;;;;;7.95;5.38;;;;;;;;;;5056754;28;20051;-79
2022/11/19 08:49:01;;;;;;;7.28;4.90;;;;;;;;;;5051129;28;20396;-79
2022/11/19 08:51:27;;;;;;;11.05;5.50;;;;;;;;;;5039349;28;20052;-79
2022/11/19 08:53:53;;;;;;;6.70;4.70;;;;;;;;;;5039749;28;20042;-79
2022/11/19 08:56:20;;;;;;;8.55;4.70;;;;;;;;;;5039171;28;20084;-79
2022/11/19 08:58:46;;;;;;;7.97;5.50;;;;;;;;;;5045949;28;20041;-79
2022/11/19 09:01:13;;;;;;;7.13;4.47;;;;;;;;;;5056988;28;20041;-80
2022/11/19 09:03:39;;;;;;;6.43;4.80;;;;;;;;;;5044079;28;20072;-80
2022/11/19 09:06:06;;;;;;;7.63;5.45;;;;;;;;;;5058858;28;20040;-80
2022/11/19 09:08:32;;;;;;;7.38;4.90;;;;;;;;;;5054634;28;20048;-77
2022/11/19 09:10:59;;;;;;;7.20;4.95;;;;;;;;;;5052131;28;20506;-78
2022/11/19 09:13:25;;;;;;;6.43;4.90;;;;;;;;;;5047439;28;20550;-77
2022/11/19 09:15:52;;;;;;;7.32;4.35;;;;;;;;;;5041215;28;20111;-78
2022/11/19 09:18:19;;;;;;;6.55;4.55;;;;;;;;;;5052370;28;20060;-78
2022/11/19 09:20:45;;;;;;;6.97;4.85;;;;;;;;;;5051210;28;20434;-78
2022/11/19 09:23:11;;;;;;;6.82;5.05;;;;;;;;;;5053390;28;20436;-79
2022/11/19 09:25:37;;;;;;;7.60;4.90;;;;;;;;;;5053993;28;20428;-79
2022/11/19 09:28:03;;;;;;;6.25;4.78;;;;;;;;;;5053441;28;20047;-79
2022/11/19 09:30:29;;;;;;;7.75;5.10;;;;;;;;;;5053659;28;20049;-79
2022/11/19 09:32:58;;;;;;;7.68;5.30;;;;;;;;;;5050686;28;20453;-79
2022/11/19 09:35:24;;;;;;;8.45;5.28;;;;;;;;;;5036228;28;20124;-78
2022/11/19 09:37:53;;;;;;;7.20;5.00;;;;;;;;;;5052217;28;20044;-83
2022/11/19 09:40:20;;;;;;;8.10;5.05;;;;;;;;;;5054898;28;20378;-79
2022/11/19 09:43:08;;;;;;;7.85;4.88;;;;;;;;;;5054113;28;20041;-80
2022/11/19 09:45:45;;;;;;;6.63;5.07;;;;;;;;;;5056590;28;20118;-79
2022/11/19 09:48:22;;;;;;;6.82;5.10;;;;;;;;;;5053626;28;20069;-79
2022/11/19 09:50:57;;;;;;;6.50;5.00;;;;;;;;;;5055457;28;20048;-79
2022/11/19 09:53:23;;;;;;;7.38;5.05;;;;;;;;;;5056874;28;20170;-79
2022/11/19 09:55:52;;;;;;;7.93;5.47;;;;;;;;;;5055640;28;20158;-80
2022/11/19 09:58:21;;;;;;;7.97;5.20;;;;;;;;;;5038149;28;20048;-80
2022/11/19 10:00:47;;;;;;;6.63;4.68;;;;;;;;;;5052759;28;20033;-80
2022/11/19 10:03:15;;;;;;;5.93;4.65;;;;;;;;;;5036862;28;20036;-80
2022/11/19 10:05:59;;;;;;;7.50;5.28;;;;;;;;;;5055689;28;20047;-80
2022/11/19 10:08:29;;;;;;;6.72;4.63;;;;;;;;;;5058669;28;20075;-80
2022/11/19 10:11:01;;;;;;;6.32;5.07;;;;;;;;;;5059195;28;20059;-81
2022/11/19 10:13:34;;;;;;;7.00;4.78;;;;;;;;;;5060852;28;20056;-81
2022/11/19 10:16:00;;;;;;;7.30;4.88;;;;;;;;;;5044931;28;20061;-80
2022/11/19 10:18:36;;;;;;;8.90;5.05;;;;;;;;;;5051819;28;20062;-80
2022/11/19 10:21:08;;;;;;;7.45;5.10;;;;;;;;;;5057571;28;20037;-80
2022/11/19 10:23:40;;;;;;;7.22;5.32;;;;;;;;;;5055401;28;20445;-80
2022/11/19 10:26:11;;;;;;;7.47;5.07;;;;;;;;;;5057551;28;20076;-79
2022/11/19 10:28:39;;;;;;;7.20;5.25;;;;;;;;;;5056258;28;20135;-80
2022/11/19 10:31:13;;;;;;;8.15;5.22;;;;;;;;;;5050092;28;20513;-77
2022/11/19 10:33:59;;;;;;;6.28;4.97;;;;;;;;;;5038707;28;20072;-78
2022/11/19 10:36:30;;;;;;;6.35;4.90;;;;;;;;;;5035402;28;20401;-79
2022/11/19 10:39:02;;;;;;;7.35;5.07;;;;;;;;;;5058462;28;20123;-77
2022/11/19 10:41:28;;;;;;;5.55;4.70;;;;;;;;;;5040244;28;20054;-79
2022/11/19 10:43:57;;;;;;;7.13;5.57;;;;;;;;;;5038103;28;20048;-77
2022/11/19 10:46:25;;;;;;;7.75;5.47;;;;;;;;;;5037452;28;20045;-78
2022/11/19 10:48:58;;;;;;;8.02;5.07;;;;;;;;;;5049880;28;20384;-78
2022/11/19 10:51:27;;;;;;;6.75;4.93;;;;;;;;;;5057264;28;20053;-78
2022/11/19 10:53:56;;;;;;;8.98;5.22;;;;;;;;;;5058995;28;20045;-79
2022/11/19 10:56:41;;;;;;;7.50;5.00;;;;;;;;;;5056280;28;20048;-79
2022/11/19 10:59:15;;;;;;;6.65;4.97;;;;;;;;;;5036380;28;20081;-78
2022/11/19 11:01:42;;;;;;;6.65;4.82;;;;;;;;;;5038103;28;20128;-79
2022/11/19 11:04:11;;;;;;;8.68;5.10;;;;;;;;;;5036188;28;20048;-78
2022/11/19 11:06:50;;;;;;;6.70;5.22;;;;;;;;;;5040058;28;20078;-81
2022/11/19 11:09:27;;;;;;;8.30;5.82;;;;;;;;;;5053751;28;20064;-78
2022/11/19 11:14:53;;;;;;;6.45;4.22;;;;;;;;;;5055388;28;20045;-79
2022/11/19 11:17:30;;;;;;;7.28;5.05;;;;;;;;;;5039280;28;20487;-77
2022/11/19 11:20:02;;;;;;;5.80;4.13;;;;;;;;;;5034868;28;20107;-78
2022/11/19 11:22:31;;;;;;;6.85;4.68;;;;;;;;;;5035510;28;20526;-79
2022/11/19 11:25:00;;;;;;;7.25;4.70;;;;;;;;;;5038392;28;20077;-79
2022/11/19 11:27:35;;;;;;;6.93;5.22;;;;;;;;;;5039533;28;20451;-78
2022/11/19 11:30:17;;;;;;;7.10;4.72;;;;;;;;;;5049604;28;20549;-80
2022/11/19 11:32:44;;;;;;;6.57;4.97;;;;;;;;;;5059503;28;20040;-78
2022/11/19 11:35:28;;;;;;;6.38;4.60;;;;;;;;;;5056267;28;20037;-78
2022/11/19 11:37:54;;;;;;;6.85;4.50;;;;;;;;;;5055336;28;20040;-78
2022/11/19 11:40:21;;;;;;;8.27;5.30;;;;;;;;;;5056201;28;20048;-79
2022/11/19 11:42:47;;;;;;;7.22;5.18;;;;;;;;;;5050987;28;20033;-78
2022/11/19 11:45:26;;;;;;;8.32;5.70;;;;;;;;;;5055373;28;20094;-78
2022/11/19 11:47:52;;;;;;;6.97;5.00;;;;;;;;;;5056817;28;20045;-81
2022/11/19 11:50:24;;;;;;;6.95;4.80;;;;;;;;;;5047368;28;20077;-79
2022/11/19 11:52:51;;;;;;;6.75;4.53;;;;;;;;;;5035729;28;20080;-79
2022/11/19 11:55:23;;;;;;;6.10;4.53;;;;;;;;;;5036290;28;20107;-78
2022/11/19 11:58:00;;;;;;;7.60;3.92;;;;;;;;;;5074494;28;20049;-78
2022/11/19 12:00:27;;;;;;;6.15;4.00;;;;;;;;;;5075355;28;20518;-78
2022/11/19 12:03:02;;;;;;;5.78;4.22;;;;;;;;;;5065022;28;20098;-78
2022/11/19 12:05:31;;;;;;;6.13;4.63;;;;;;;;;;5047384;28;20434;-78
2022/11/19 12:08:04;;;;;;;7.18;4.55;;;;;;;;;;5040568;28;20073;-78
2022/11/19 12:10:43;;;;;;;5.72;4.38;;;;;;;;;;5052824;28;20053;-78
2022/11/19 12:13:09;;;;;;;7.43;4.80;;;;;;;;;;5063133;28;20147;-78
2022/11/19 12:15:47;;;;;;;6.32;4.20;;;;;;;;;;5074365;28;20127;-78
2022/11/19 12:18:17;;;;;;;7.85;4.68;;;;;;;;;;5074598;28;20044;-78
2022/11/19 12:21:00;;;;;;;6.47;4.20;;;;;;;;;;5074538;28;20041;-78
2022/11/19 12:23:32;;;;;;;6.45;4.40;;;;;;;;;;5060400;28;20487;-78
2022/11/19 12:26:11;;;;;;;5.70;4.18;;;;;;;;;;5054202;28;20037;-78
2022/11/19 12:28:55;;;;;;;6.30;4.05;;;;;;;;;;5054318;28;20407;-78
2022/11/19 12:31:21;;;;;;;5.13;4.07;;;;;;;;;;5053233;28;20075;-78
2022/11/19 12:33:50;;;;;;;6.82;4.15;;;;;;;;;;5053598;28;20068;-78
2022/11/19 12:36:46;;;;;;;6.03;4.53;;;;;;;;;;5054148;28;20045;-78
2022/11/19 12:39:21;;;;;;;8.32;4.40;;;;;;;;;;5048077;28;20064;-78
2022/11/19 12:41:50;;;;;;;5.78;4.07;;;;;;;;;;5054170;28;20045;-78
2022/11/19 12:44:19;;;;;;;5.95;3.95;;;;;;;;;;5053996;28;20049;-78
2022/11/19 12:46:52;;;;;;;6.55;4.15;;;;;;;;;;5053878;28;20102;-78
2022/11/19 12:49:21;;;;;;;7.60;4.35;;;;;;;;;;5053985;28;20084;-78
2022/11/19 12:51:53;;;;;;;6.32;3.90;;;;;;;;;;5052823;28;20049;-78
2022/11/19 12:54:19;;;;;;;6.07;4.20;;;;;;;;;;5054155;28;20124;-78
2022/11/19 12:56:53;;;;;;;5.78;4.40;;;;;;;;;;5054128;28;20052;-78
2022/11/19 12:59:25;;;;;;;5.05;4.20;;;;;;;;;;5053929;28;20052;-78
2022/11/19 13:01:53;;;;;;;5.35;4.00;;;;;;;;;;5054232;28;20048;-78
2022/11/19 13:04:28;;;;;;;6.07;4.35;;;;;;;;;;5034293;28;20110;-78
2022/11/19 13:07:10;;;;;;;6.05;4.22;;;;;;;;;;5016087;28;20052;-78
2022/11/19 13:09:43;;;;;;;6.40;4.50;;;;;;;;;;5043058;28;20049;-78
2022/11/19 13:12:17;;;;;;;6.63;4.28;;;;;;;;;;5052721;28;20053;-78
2022/11/19 13:14:55;;;;;;;5.93;4.55;;;;;;;;;;5050529;28;20411;-78
2022/11/19 13:17:33;;;;;;;6.22;4.22;;;;;;;;;;5054050;28;20062;-78
2022/11/19 13:20:04;;;;;;;6.30;4.22;;;;;;;;;;5053707;28;20045;-78
2022/11/19 13:22:35;;;;;;;7.00;3.75;;;;;;;;;;5054023;28;20103;-78
2022/11/19 13:25:12;;;;;;;5.38;3.63;;;;;;;;;;5054181;28;20042;-78
2022/11/19 13:27:38;;;;;;;5.70;3.90;;;;;;;;;;5053857;28;20045;-78
2022/11/19 13:30:06;;;;;;;5.55;4.30;;;;;;;;;;5053274;28;20495;-78
2022/11/19 13:32:38;;;;;;;5.65;4.20;;;;;;;;;;5052887;28;20053;-78
2022/11/19 13:35:22;;;;;;;6.68;4.43;;;;;;;;;;5052848;28;20495;-78
2022/11/19 13:38:06;;;;;;;5.43;4.03;;;;;;;;;;5053510;28;20041;-78
2022/11/19 13:40:41;;;;;;;5.43;3.85;;;;;;;;;;5053175;28;20045;-78
2022/11/19 13:46:15;;;;;;;5.25;3.67;;;;;;;;;;5062081;28;20060;-78
2022/11/19 13:49:01;;;;;;;6.67;4.20;;;;;;;;;;5061510;28;20503;-79
2022/11/19 13:51:36;;;;;;;5.13;3.90;;;;;;;;;;5060230;28;20064;-77
2022/11/19 13:54:04;;;;;;;5.88;4.35;;;;;;;;;;5057014;28;20399;-78
2022/11/19 13:56:44;;;;;;;5.60;3.90;;;;;;;;;;5058131;28;20067;-78
2022/11/19 13:59:40;;;;;;;5.70;3.90;;;;;;;;;;5053701;28;20142;-78
2022/11/19 14:02:17;;;;;;;7.50;4.20;;;;;;;;;;5051958;28;20067;-79
2022/11/19 14:05:00;;;;;;;6.03;4.30;;;;;;;;;;5054395;28;20452;-78
2022/11/19 14:07:45;;;;;;;6.95;4.68;;;;;;;;;;5060056;28;20048;-78
2022/11/19 14:10:20;;;;;;;6.47;4.43;;;;;;;;;;5051470;28;20059;-77
2022/11/19 14:12:49;;;;;;;6.28;4.57;;;;;;;;;;5056687;28;20045;-76
2022/11/19 14:27:14;;;;;;;6.40;4.10;;;;;;;;;;5056533;28;20128;-77
2022/11/19 14:29:43;;;;;;;6.38;4.60;;;;;;;;;;5056761;28;20177;-77
2022/11/19 14:32:09;;;;;;;6.80;4.75;;;;;;;;;;5056802;28;20048;-78
2022/11/19 14:34:36;;;;;;;6.63;4.38;;;;;;;;;;5058085;28;20045;-78
2022/11/19 14:37:16;;;;;;;7.82;5.03;;;;;;;;;;5057752;28;20099;-77
2022/11/19 14:39:44;;;;;;;6.72;4.50;;;;;;;;;;5056817;28;20037;-77
2022/11/19 14:42:13;;;;;;;5.78;4.07;;;;;;;;;;5057027;28;20079;-77
2022/11/19 14:44:39;;;;;;;5.15;4.13;;;;;;;;;;5059091;28;20372;-78
2022/11/19 14:47:25;;;;;;;6.43;4.40;;;;;;;;;;5061449;28;20045;-78
2022/11/19 14:49:53;;;;;;;6.07;4.32;;;;;;;;;;5057510;28;20087;-78
2022/11/19 14:52:20;;;;;;;7.32;4.45;;;;;;;;;;5056619;28;20540;-78
2022/11/19 14:54:52;;;;;;;6.47;4.53;;;;;;;;;;5053914;28;20044;-78
2022/11/19 14:57:29;;;;;;;7.22;4.60;;;;;;;;;;5055845;28;20537;-77
2022/11/19 15:00:00;;;;;;;6.03;4.03;;;;;;;;;;5054694;28;20403;-77
2022/11/19 15:02:31;;;;;;;6.18;4.25;;;;;;;;;;5039855;28;20049;-77
2022/11/19 15:05:05;;;;;;;6.55;4.60;;;;;;;;;;5055057;28;20124;-77
2022/11/19 15:07:50;;;;;;;6.35;4.50;;;;;;;;;;5056889;28;20052;-77
2022/11/19 15:10:16;;;;;;;5.82;4.35;;;;;;;;;;5064480;28;20045;-79
2022/11/19 15:12:42;;;;;;;6.90;4.50;;;;;;;;;;5060394;28;20045;-81
2022/11/19 15:15:21;;;;;;;6.85;4.60;;;;;;;;;;5043735;28;20081;-79
2022/11/19 15:18:00;;;;;;;6.90;4.63;;;;;;;;;;5056640;28;20045;-78
2022/11/19 15:20:45;;;;;;;6.60;4.75;;;;;;;;;;5036056;28;20080;-77
2022/11/19 15:23:20;;;;;;;6.72;4.85;;;;;;;;;;5050998;28;20077;-77
2022/11/19 15:25:56;;;;;;;6.90;4.60;;;;;;;;;;5036486;28;20053;-77
2022/11/19 15:28:22;;;;;;;;;;;;;;;;;;5054697;28;20049;-78
2022/11/19 15:30:48;;;;;;;7.20;5.20;;;;;;;;;;5054021;28;20378;-78
2022/11/19 15:33:25;;;;;;;7.03;5.47;;;;;;;;;;5052066;28;20041;-77
2022/11/19 15:36:02;;;;;;;7.90;5.68;;;;;;;;;;5038360;28;20053;-77
2022/11/19 15:38:28;;;;;;;;;;;;;;;;;;5045584;28;20116;-77